Time;durP1;ratioP1;P1;durP2;ratioP2;P2;SDS_P1;SDS_P2;PMS_P1;PMS_P2;Temp;Humidity;BMP_temperature;BMP_pressure;BME280_temperature;BME280_humidity;BME280_pressure;Samples;Min_cycle;Max_cycle;Signal;HPM_P1;HPM_P2
2023/01/17 00:01:09;;;;;;;0.10;0.10;;;;;;;;;;4955325;29;20055;-78
2023/01/17 00:11:58;;;;;;;1.20;0.20;;;;;;;;;;4955336;29;20439;-76
2023/01/17 00:14:26;;;;;;;0.43;0.30;;;;;;;;;;4955288;29;20035;-77
2023/01/17 00:16:52;;;;;;;0.20;0.20;;;;;;;;;;4955494;28;20030;-76
2023/01/17 01:34:04;;;;;;;8.45;1.02;;;;;;;;;;4954043;29;20045;-76
2023/01/17 01:36:30;;;;;;;0.32;0.32;;;;;;;;;;4953592;29;20420;-75
2023/01/17 01:38:56;;;;;;;0.30;0.28;;;;;;;;;;4955979;29;20409;-76
2023/01/17 01:41:22;;;;;;;0.55;0.55;;;;;;;;;;4955985;29;20026;-75
2023/01/17 01:43:49;;;;;;;0.22;0.22;;;;;;;;;;4955752;29;20034;-76
2023/01/17 01:46:17;;;;;;;0.20;0.20;;;;;;;;;;4955898;29;20408;-75
2023/01/17 01:48:47;;;;;;;0.20;0.20;;;;;;;;;;4954528;28;20033;-76
2023/01/17 01:51:16;;;;;;;2.00;0.20;;;;;;;;;;4953581;29;20244;-75
2023/01/17 01:53:44;;;;;;;0.73;0.63;;;;;;;;;;4951052;29;20606;-77
2023/01/17 01:56:11;;;;;;;1.98;0.30;;;;;;;;;;4951344;29;20480;-78
2023/01/17 01:58:38;;;;;;;0.93;0.30;;;;;;;;;;4951175;29;20139;-75
2023/01/17 02:01:05;;;;;;;0.30;0.30;;;;;;;;;;4951158;29;20499;-75
2023/01/17 02:03:32;;;;;;;0.75;0.75;;;;;;;;;;4951135;29;20619;-75
2023/01/17 02:06:01;;;;;;;0.20;0.20;;;;;;;;;;4951305;29;20512;-75
2023/01/17 02:08:27;;;;;;;2.85;0.73;;;;;;;;;;4951350;29;20046;-76
2023/01/17 02:10:54;;;;;;;1.02;0.40;;;;;;;;;;4951716;29;20030;-75
2023/01/17 02:13:20;;;;;;;1.75;0.52;;;;;;;;;;4951404;29;20488;-76
2023/01/17 02:15:46;;;;;;;0.95;0.73;;;;;;;;;;4951787;29;20019;-75
2023/01/17 02:18:12;;;;;;;0.95;0.68;;;;;;;;;;4952471;29;20033;-76
2023/01/17 02:20:50;;;;;;;0.28;0.28;;;;;;;;;;4952420;29;20027;-75
2023/01/17 02:23:19;;;;;;;0.20;0.20;;;;;;;;;;4955136;29;20106;-75
2023/01/17 02:26:04;;;;;;;0.40;0.40;;;;;;;;;;4954509;29;20034;-75
2023/01/17 02:28:39;;;;;;;0.75;0.75;;;;;;;;;;4952571;29;20039;-76
2023/01/17 02:31:16;;;;;;;0.30;0.30;;;;;;;;;;4951391;29;20045;-75
2023/01/17 02:33:47;;;;;;;0.22;0.22;;;;;;;;;;4954013;29;20055;-76
2023/01/17 02:36:13;;;;;;;2.17;0.73;;;;;;;;;;4952646;29;20055;-75
2023/01/17 02:38:39;;;;;;;0.45;0.40;;;;;;;;;;4952610;29;20106;-76
2023/01/17 02:41:07;;;;;;;0.63;0.50;;;;;;;;;;4952336;29;20060;-76
2023/01/17 02:43:33;;;;;;;0.55;0.55;;;;;;;;;;4951251;29;20528;-74
2023/01/17 02:45:59;;;;;;;0.80;0.75;;;;;;;;;;4952678;29;20476;-75
2023/01/17 02:48:27;;;;;;;0.32;0.32;;;;;;;;;;4953162;29;20047;-74
2023/01/17 02:50:56;;;;;;;0.38;0.30;;;;;;;;;;4953545;29;20023;-75
2023/01/17 02:53:35;;;;;;;0.30;0.30;;;;;;;;;;4952805;29;20065;-77
2023/01/17 02:56:04;;;;;;;0.50;0.50;;;;;;;;;;4952315;29;20209;-76
2023/01/17 02:58:30;;;;;;;;;;;;;;;;;;4951248;29;20057;-77
2023/01/17 03:00:59;;;;;;;2.28;0.50;;;;;;;;;;4952302;28;19958;-76
2023/01/17 03:03:28;;;;;;;2.08;0.85;;;;;;;;;;4950705;29;20027;-75
2023/01/17 03:05:59;;;;;;;1.98;1.00;;;;;;;;;;4952390;28;20019;-76
2023/01/17 03:08:25;;;;;;;1.05;0.50;;;;;;;;;;4952534;29;20039;-75
2023/01/17 03:10:51;;;;;;;0.40;0.40;;;;;;;;;;4952132;29;20104;-76
2023/01/17 03:13:17;;;;;;;0.73;0.73;;;;;;;;;;4952097;29;20132;-76
2023/01/17 03:15:44;;;;;;;0.30;0.30;;;;;;;;;;4951934;29;20047;-76
2023/01/17 03:18:13;;;;;;;0.40;0.40;;;;;;;;;;4951879;29;20031;-75
2023/01/17 03:20:39;;;;;;;0.63;0.30;;;;;;;;;;4952309;29;20035;-76
2023/01/17 03:23:05;;;;;;;0.55;0.38;;;;;;;;;;4952153;29;20027;-75
2023/01/17 03:25:31;;;;;;;1.00;0.43;;;;;;;;;;4950624;29;20174;-75
2023/01/17 03:27:57;;;;;;;0.57;0.57;;;;;;;;;;4951780;29;20035;-76
2023/01/17 03:30:23;;;;;;;0.90;0.47;;;;;;;;;;4950868;29;20278;-78
2023/01/17 03:32:49;;;;;;;0.50;0.50;;;;;;;;;;4952056;29;20025;-76
2023/01/17 03:35:15;;;;;;;0.60;0.60;;;;;;;;;;4951655;29;20126;-75
2023/01/17 03:37:41;;;;;;;0.50;0.43;;;;;;;;;;4951979;29;20477;-76
2023/01/17 03:40:09;;;;;;;0.30;0.30;;;;;;;;;;4954354;29;20051;-77
2023/01/17 03:42:35;;;;;;;0.40;0.40;;;;;;;;;;4955678;29;20535;-75
2023/01/17 03:45:01;;;;;;;2.83;0.40;;;;;;;;;;4956143;29;20062;-78
2023/01/17 03:47:27;;;;;;;0.65;0.30;;;;;;;;;;4956408;29;20055;-78
2023/01/17 03:49:53;;;;;;;0.32;0.32;;;;;;;;;;4955662;29;20388;-76
2023/01/17 03:52:19;;;;;;;2.15;0.50;;;;;;;;;;4957327;29;20031;-76
2023/01/17 03:54:45;;;;;;;10.60;0.77;;;;;;;;;;4955664;29;20534;-75
2023/01/17 03:57:11;;;;;;;0.55;0.43;;;;;;;;;;4953941;29;20070;-78
2023/01/17 03:59:37;;;;;;;0.25;0.25;;;;;;;;;;4952607;29;20035;-75
2023/01/17 04:02:03;;;;;;;0.63;0.55;;;;;;;;;;4952094;29;20077;-76
2023/01/17 04:04:29;;;;;;;0.40;0.40;;;;;;;;;;4952734;29;20109;-75
2023/01/17 04:06:55;;;;;;;0.60;0.60;;;;;;;;;;4952340;29;20023;-76
2023/01/17 04:09:21;;;;;;;0.73;0.73;;;;;;;;;;4952528;29;20054;-78
2023/01/17 04:11:49;;;;;;;0.77;0.75;;;;;;;;;;4953978;28;20035;-75
2023/01/17 04:14:19;;;;;;;0.40;0.40;;;;;;;;;;4954594;29;20035;-76
2023/01/17 04:16:45;;;;;;;;;;;;;;;;;;4955720;29;20058;-78
2023/01/17 04:19:14;;;;;;;1.05;0.55;;;;;;;;;;4955793;29;19918;-75
2023/01/17 04:21:40;;;;;;;0.65;0.60;;;;;;;;;;4955744;29;20057;-74
2023/01/17 04:24:06;;;;;;;0.47;0.47;;;;;;;;;;4955471;29;20039;-76
2023/01/17 04:26:32;;;;;;;0.68;0.68;;;;;;;;;;4955621;29;20055;-75
2023/01/17 04:28:58;;;;;;;0.50;0.50;;;;;;;;;;4955059;29;20070;-75
2023/01/17 04:31:24;;;;;;;0.35;0.35;;;;;;;;;;4954865;29;20126;-76
2023/01/17 04:33:50;;;;;;;0.60;0.50;;;;;;;;;;4954541;29;20042;-77
2023/01/17 04:36:16;;;;;;;0.65;0.65;;;;;;;;;;4953818;29;20047;-75
2023/01/17 04:38:42;;;;;;;0.70;0.70;;;;;;;;;;4955373;29;20034;-79
2023/01/17 04:41:08;;;;;;;0.77;0.77;;;;;;;;;;4953992;29;20122;-75
2023/01/17 04:43:34;;;;;;;0.40;0.40;;;;;;;;;;4954107;29;20063;-74
2023/01/17 04:46:00;;;;;;;0.75;0.45;;;;;;;;;;4969766;28;20031;-77
2023/01/17 04:48:27;;;;;;;0.30;0.30;;;;;;;;;;4953595;29;20043;-76
2023/01/17 04:51:00;;;;;;;1.10;0.77;;;;;;;;;;4953767;29;20369;-77
2023/01/17 04:53:26;;;;;;;0.55;0.30;;;;;;;;;;4954970;29;20066;-76
2023/01/17 04:55:52;;;;;;;3.05;1.33;;;;;;;;;;4954807;29;20051;-75
2023/01/17 04:58:18;;;;;;;1.05;0.60;;;;;;;;;;4953837;29;20062;-74
2023/01/17 05:00:49;;;;;;;3.40;0.70;;;;;;;;;;4953735;29;20030;-74
2023/01/17 05:03:15;;;;;;;0.70;0.43;;;;;;;;;;4954707;28;20027;-74
2023/01/17 05:05:42;;;;;;;0.60;0.50;;;;;;;;;;4954610;29;20034;-74
2023/01/17 05:08:08;;;;;;;0.50;0.40;;;;;;;;;;4954404;29;20465;-76
2023/01/17 05:10:34;;;;;;;0.85;0.65;;;;;;;;;;4954218;29;20051;-74
2023/01/17 05:13:01;;;;;;;1.15;0.80;;;;;;;;;;4953587;29;20423;-76
2023/01/17 05:15:27;;;;;;;1.08;0.52;;;;;;;;;;4954490;28;20015;-74
2023/01/17 05:17:54;;;;;;;0.70;0.70;;;;;;;;;;4954191;29;20034;-78
2023/01/17 05:20:21;;;;;;;1.20;1.20;;;;;;;;;;4954473;29;20043;-73
2023/01/17 05:22:56;;;;;;;1.30;0.57;;;;;;;;;;4953729;28;20050;-74
2023/01/17 05:25:24;;;;;;;1.65;1.23;;;;;;;;;;4952944;29;20433;-74
2023/01/17 05:27:50;;;;;;;1.05;0.95;;;;;;;;;;4954156;29;20071;-76
2023/01/17 05:30:17;;;;;;;0.68;0.60;;;;;;;;;;4954389;29;20258;-74
2023/01/17 05:32:53;;;;;;;1.55;1.15;;;;;;;;;;4954237;29;20564;-77
2023/01/17 05:35:21;;;;;;;0.85;0.50;;;;;;;;;;4954289;29;20079;-75
2023/01/17 05:37:50;;;;;;;1.42;0.80;;;;;;;;;;4954285;29;20062;-75
2023/01/17 05:40:16;;;;;;;0.63;0.60;;;;;;;;;;4954358;29;20412;-75
2023/01/17 05:42:46;;;;;;;1.30;0.63;;;;;;;;;;4954795;29;20503;-74
2023/01/17 05:45:15;;;;;;;2.45;1.42;;;;;;;;;;4954608;29;20023;-75
2023/01/17 05:47:41;;;;;;;;;;;;;;;;;;4955555;28;20027;-74
2023/01/17 05:50:07;;;;;;;0.60;0.40;;;;;;;;;;4953431;29;19906;-74
2023/01/17 05:52:33;;;;;;;5.00;0.80;;;;;;;;;;4954180;29;20035;-75
2023/01/17 05:54:59;;;;;;;1.35;0.60;;;;;;;;;;4952402;29;20468;-78
2023/01/17 05:57:25;;;;;;;1.95;1.00;;;;;;;;;;4952168;29;20027;-77
2023/01/17 05:59:51;;;;;;;0.70;0.70;;;;;;;;;;4953419;29;20027;-76
2023/01/17 06:02:17;;;;;;;1.08;0.77;;;;;;;;;;4953294;29;20027;-77
2023/01/17 06:04:43;;;;;;;0.60;0.60;;;;;;;;;;4953324;29;20361;-74
2023/01/17 06:07:09;;;;;;;1.35;0.80;;;;;;;;;;4953498;29;20027;-74
2023/01/17 06:09:35;;;;;;;4.95;0.85;;;;;;;;;;4953143;29;20800;-79
2023/01/17 06:12:01;;;;;;;0.98;0.77;;;;;;;;;;4952012;29;20030;-75
2023/01/17 06:14:27;;;;;;;0.73;0.60;;;;;;;;;;4952947;29;20035;-76
2023/01/17 06:16:53;;;;;;;4.28;2.00;;;;;;;;;;4953268;29;20023;-75
2023/01/17 06:19:19;;;;;;;2.88;1.27;;;;;;;;;;4953623;29;20497;-74
2023/01/17 06:21:45;;;;;;;3.05;0.90;;;;;;;;;;4951989;29;20068;-75
2023/01/17 06:24:11;;;;;;;1.75;0.85;;;;;;;;;;4953444;29;20058;-74
2023/01/17 06:26:37;;;;;;;2.28;1.70;;;;;;;;;;4951898;29;20035;-76
2023/01/17 06:29:03;;;;;;;2.70;1.58;;;;;;;;;;4952642;29;20035;-77
2023/01/17 06:31:29;;;;;;;3.90;2.25;;;;;;;;;;4951258;29;20036;-77
2023/01/17 06:33:55;;;;;;;2.25;1.85;;;;;;;;;;4952466;28;20513;-78
2023/01/17 06:36:23;;;;;;;3.58;2.30;;;;;;;;;;4952692;29;20494;-75
2023/01/17 06:38:50;;;;;;;2.80;1.80;;;;;;;;;;4953365;28;20567;-74
2023/01/17 06:41:16;;;;;;;2.13;1.30;;;;;;;;;;4952788;28;20305;-76
2023/01/17 06:43:42;;;;;;;8.43;3.85;;;;;;;;;;4952740;29;20193;-74
2023/01/17 06:46:08;;;;;;;7.70;2.55;;;;;;;;;;4952724;29;20272;-77
2023/01/17 06:48:34;;;;;;;3.17;2.05;;;;;;;;;;4950976;29;20448;-74
2023/01/17 06:51:00;;;;;;;3.65;2.38;;;;;;;;;;4952521;29;20039;-77
2023/01/17 06:53:26;;;;;;;3.90;1.83;;;;;;;;;;4952562;29;20027;-77
2023/01/17 06:55:54;;;;;;;1.50;1.40;;;;;;;;;;4953774;29;20397;-73
2023/01/17 06:58:20;;;;;;;5.05;1.55;;;;;;;;;;4952880;29;20060;-75
2023/01/17 07:00:47;;;;;;;1.80;1.70;;;;;;;;;;4951551;29;20024;-73
2023/01/17 07:03:18;;;;;;;2.33;1.30;;;;;;;;;;4952807;29;20424;-74
2023/01/17 07:05:44;;;;;;;1.38;1.17;;;;;;;;;;4953008;28;20031;-74
2023/01/17 07:08:10;;;;;;;1.80;1.33;;;;;;;;;;4951398;29;20122;-75
2023/01/17 07:10:36;;;;;;;4.53;1.35;;;;;;;;;;4945638;28;20142;-77
2023/01/17 07:13:02;;;;;;;3.88;1.70;;;;;;;;;;4947070;29;20048;-75
2023/01/17 07:15:28;;;;;;;2.95;2.35;;;;;;;;;;4950513;29;20027;-77
2023/01/17 07:17:54;;;;;;;3.05;1.60;;;;;;;;;;4950539;29;20499;-76
2023/01/17 07:20:20;;;;;;;3.50;2.13;;;;;;;;;;4950531;29;20027;-77
2023/01/17 07:22:46;;;;;;;4.35;2.17;;;;;;;;;;4949241;29;20031;-78
2023/01/17 07:25:12;;;;;;;2.45;1.58;;;;;;;;;;4963826;28;20035;-76
2023/01/17 07:27:38;;;;;;;9.13;2.47;;;;;;;;;;4949466;29;20511;-76
2023/01/17 07:30:04;;;;;;;3.63;1.80;;;;;;;;;;4949500;29;20038;-77
2023/01/17 07:32:31;;;;;;;2.63;1.45;;;;;;;;;;4947807;29;20039;-78
2023/01/17 07:34:57;;;;;;;3.17;1.63;;;;;;;;;;4948786;29;20074;-80
2023/01/17 07:37:24;;;;;;;1.45;1.35;;;;;;;;;;4948210;29;20020;-76
2023/01/17 07:39:50;;;;;;;2.45;1.38;;;;;;;;;;4947862;29;20039;-76
2023/01/17 07:42:16;;;;;;;2.33;1.52;;;;;;;;;;4950124;29;20140;-77
2023/01/17 07:44:43;;;;;;;2.30;2.10;;;;;;;;;;4949567;29;20543;-76
2023/01/17 07:47:10;;;;;;;2.58;1.85;;;;;;;;;;4950450;28;20023;-77
2023/01/17 07:49:36;;;;;;;3.85;2.22;;;;;;;;;;4953955;29;20043;-77
2023/01/17 07:52:02;;;;;;;5.38;2.85;;;;;;;;;;4953775;29;20570;-77
2023/01/17 07:54:28;;;;;;;11.73;4.25;;;;;;;;;;4951098;29;20050;-77
2023/01/17 07:56:54;;;;;;;10.00;4.25;;;;;;;;;;4952901;29;20032;-77
2023/01/17 07:59:20;;;;;;;5.85;3.40;;;;;;;;;;4951100;29;20039;-78
2023/01/17 08:01:46;;;;;;;7.18;4.85;;;;;;;;;;4951698;29;20031;-78
2023/01/17 08:04:12;;;;;;;6.60;3.40;;;;;;;;;;4952419;29;20361;-77
2023/01/17 08:06:41;;;;;;;2.63;1.85;;;;;;;;;;4966872;28;20023;-78
2023/01/17 08:09:07;;;;;;;2.30;1.80;;;;;;;;;;4951818;29;20045;-75
2023/01/17 08:11:33;;;;;;;4.45;1.73;;;;;;;;;;4951780;28;20255;-77
2023/01/17 08:13:59;;;;;;;3.97;2.00;;;;;;;;;;4950866;29;20523;-78
2023/01/17 08:16:27;;;;;;;3.40;2.13;;;;;;;;;;4950640;29;20023;-77
2023/01/17 08:18:54;;;;;;;2.08;1.85;;;;;;;;;;4953875;29;20023;-77
2023/01/17 08:21:20;;;;;;;3.60;2.70;;;;;;;;;;4953666;29;20058;-78
2023/01/17 08:23:49;;;;;;;3.95;2.40;;;;;;;;;;4950832;29;20031;-79
2023/01/17 08:26:20;;;;;;;2.38;1.83;;;;;;;;;;4953078;29;20358;-81
2023/01/17 08:29:00;;;;;;;2.30;1.88;;;;;;;;;;4950312;29;20039;-77
2023/01/17 08:31:26;;;;;;;;;;;;;;;;;;4951706;29;20027;-77
2023/01/17 08:33:52;;;;;;;4.82;1.73;;;;;;;;;;4951507;28;19911;-77
2023/01/17 08:36:18;;;;;;;2.42;1.80;;;;;;;;;;4951328;29;20052;-78
2023/01/17 08:38:44;;;;;;;3.25;1.95;;;;;;;;;;4950360;29;20117;-78
2023/01/17 08:41:11;;;;;;;6.03;2.17;;;;;;;;;;4952403;29;20114;-79
2023/01/17 08:43:37;;;;;;;3.00;1.85;;;;;;;;;;4951485;29;20011;-79
2023/01/17 08:46:05;;;;;;;3.60;2.03;;;;;;;;;;4949941;29;20054;-79
2023/01/17 08:48:31;;;;;;;5.38;2.78;;;;;;;;;;4950438;29;20039;-78
2023/01/17 08:50:59;;;;;;;4.22;2.20;;;;;;;;;;4950262;29;20036;-79
2023/01/17 08:53:25;;;;;;;3.47;1.90;;;;;;;;;;4952538;29;20027;-79
2023/01/17 08:55:59;;;;;;;9.13;2.22;;;;;;;;;;4950039;29;20488;-79
2023/01/17 08:58:26;;;;;;;2.30;2.05;;;;;;;;;;4950012;28;20055;-79
2023/01/17 09:00:52;;;;;;;6.10;4.35;;;;;;;;;;4952449;28;20445;-80
2023/01/17 09:03:18;;;;;;;2.63;2.38;;;;;;;;;;4968659;28;20027;-79
2023/01/17 09:05:44;;;;;;;3.55;1.90;;;;;;;;;;4966820;28;20027;-79
2023/01/17 09:08:10;;;;;;;4.43;2.47;;;;;;;;;;4951782;29;20043;-80
2023/01/17 09:10:37;;;;;;;3.67;1.77;;;;;;;;;;4957488;29;20515;-79
2023/01/17 09:13:05;;;;;;;3.88;2.85;;;;;;;;;;4953887;29;20122;-78
2023/01/17 09:15:32;;;;;;;3.75;1.75;;;;;;;;;;4953608;28;20031;-77
2023/01/17 09:17:59;;;;;;;2.25;2.05;;;;;;;;;;4953894;29;20062;-75
2023/01/17 09:20:28;;;;;;;3.95;2.70;;;;;;;;;;4955607;28;20027;-79
2023/01/17 09:22:55;;;;;;;5.85;2.97;;;;;;;;;;4959046;28;20046;-79
2023/01/17 09:25:21;;;;;;;4.82;2.33;;;;;;;;;;4965912;29;20039;-79
2023/01/17 09:27:47;;;;;;;2.83;2.28;;;;;;;;;;4973107;29;20042;-79
2023/01/17 09:30:13;;;;;;;4.90;2.88;;;;;;;;;;4968082;29;20054;-78
2023/01/17 09:32:39;;;;;;;4.00;2.63;;;;;;;;;;4976850;29;20038;-79
2023/01/17 09:35:07;;;;;;;2.63;2.10;;;;;;;;;;4957882;29;20082;-79
2023/01/17 09:37:33;;;;;;;8.38;3.75;;;;;;;;;;4968603;28;20023;-80
2023/01/17 09:39:59;;;;;;;4.50;2.17;;;;;;;;;;4970889;29;20503;-79
2023/01/17 09:42:30;;;;;;;3.50;2.70;;;;;;;;;;4970759;29;20082;-78
2023/01/17 09:44:56;;;;;;;2.42;2.10;;;;;;;;;;4973879;28;20078;-78
2023/01/17 09:47:43;;;;;;;3.33;2.35;;;;;;;;;;4974713;28;20023;-78
2023/01/17 09:50:24;;;;;;;2.38;1.88;;;;;;;;;;4960533;29;20078;-80
2023/01/17 09:52:59;;;;;;;3.25;2.20;;;;;;;;;;4974859;29;20031;-78
2023/01/17 09:55:29;;;;;;;3.97;2.47;;;;;;;;;;4971733;29;20027;-78
2023/01/17 09:58:04;;;;;;;4.65;2.83;;;;;;;;;;4956098;28;20019;-78
2023/01/17 10:00:30;;;;;;;4.00;2.42;;;;;;;;;;4948888;28;20087;-78
2023/01/17 10:02:56;;;;;;;2.20;2.00;;;;;;;;;;4954184;29;20504;-78
2023/01/17 10:05:42;;;;;;;2.42;1.90;;;;;;;;;;4951926;29;20038;-79
2023/01/17 10:08:27;;;;;;;2.97;2.67;;;;;;;;;;4965571;28;20030;-79
2023/01/17 10:10:53;;;;;;;7.35;2.28;;;;;;;;;;4959490;29;20035;-78
2023/01/17 10:13:25;;;;;;;5.78;1.73;;;;;;;;;;4967787;28;20023;-78
2023/01/17 10:15:57;;;;;;;2.25;1.33;;;;;;;;;;4975097;28;20038;-79
2023/01/17 10:18:42;;;;;;;7.85;2.88;;;;;;;;;;4964649;28;20041;-79
2023/01/17 10:21:14;;;;;;;7.50;2.58;;;;;;;;;;4948891;29;20054;-78
2023/01/17 10:23:43;;;;;;;2.47;1.67;;;;;;;;;;4963555;28;20035;-79
2023/01/17 10:26:13;;;;;;;2.17;1.98;;;;;;;;;;4949220;29;20026;-79
2023/01/17 10:28:47;;;;;;;2.30;1.92;;;;;;;;;;4965072;28;20082;-80
2023/01/17 10:31:23;;;;;;;3.35;1.48;;;;;;;;;;4966429;28;20023;-81
2023/01/17 10:33:56;;;;;;;2.33;1.80;;;;;;;;;;4974579;28;20222;-78
2023/01/17 10:36:22;;;;;;;5.13;1.48;;;;;;;;;;4957645;28;20059;-78
2023/01/17 10:38:53;;;;;;;9.25;1.95;;;;;;;;;;4958777;28;20038;-77
2023/01/17 10:41:25;;;;;;;2.78;1.80;;;;;;;;;;4960723;28;20084;-78
2023/01/17 10:43:51;;;;;;;2.40;1.92;;;;;;;;;;4975819;28;20311;-78
2023/01/17 10:46:20;;;;;;;2.85;1.63;;;;;;;;;;4956782;29;20034;-78
2023/01/17 10:48:47;;;;;;;2.83;2.05;;;;;;;;;;4959124;28;20046;-78
2023/01/17 10:51:13;;;;;;;2.70;1.30;;;;;;;;;;4951353;28;20036;-79
2023/01/17 10:53:45;;;;;;;3.78;1.90;;;;;;;;;;4961314;28;20051;-78
2023/01/17 10:56:13;;;;;;;3.33;1.30;;;;;;;;;;4976241;28;20023;-80
2023/01/17 10:58:39;;;;;;;1.17;1.00;;;;;;;;;;4960093;28;20058;-78
2023/01/17 11:01:19;;;;;;;3.13;1.67;;;;;;;;;;4949582;29;20043;-79
2023/01/17 11:03:54;;;;;;;1.38;1.02;;;;;;;;;;4960299;29;20055;-79
2023/01/17 11:06:24;;;;;;;2.47;0.95;;;;;;;;;;4959400;28;20027;-78
2023/01/17 11:08:52;;;;;;;4.50;1.15;;;;;;;;;;4960341;29;20038;-83
2023/01/17 11:11:19;;;;;;;1.73;0.90;;;;;;;;;;4955462;29;20027;-81
2023/01/17 11:13:49;;;;;;;1.50;1.05;;;;;;;;;;4959834;29;20074;-79
2023/01/17 11:16:26;;;;;;;4.97;2.05;;;;;;;;;;4959713;28;20350;-79
2023/01/17 11:19:10;;;;;;;1.52;1.27;;;;;;;;;;4973426;28;20070;-79
2023/01/17 11:21:38;;;;;;;0.90;0.90;;;;;;;;;;4961412;28;20030;-79
2023/01/17 11:24:11;;;;;;;1.20;0.93;;;;;;;;;;4964890;28;20035;-79
2023/01/17 11:26:46;;;;;;;2.15;1.05;;;;;;;;;;4961965;29;20047;-79
2023/01/17 11:29:15;;;;;;;3.50;1.85;;;;;;;;;;4962094;29;20199;-79
2023/01/17 11:31:41;;;;;;;0.85;0.55;;;;;;;;;;4957460;28;20078;-79
2023/01/17 11:34:13;;;;;;;2.20;0.90;;;;;;;;;;4960320;28;20039;-80
2023/01/17 11:36:40;;;;;;;0.70;0.70;;;;;;;;;;4942690;29;20062;-81
2023/01/17 11:39:18;;;;;;;1.63;0.95;;;;;;;;;;4959045;28;20039;-80
2023/01/17 11:41:46;;;;;;;0.77;0.77;;;;;;;;;;4946754;29;20417;-81
2023/01/17 11:44:21;;;;;;;1.55;0.80;;;;;;;;;;4958328;28;20050;-80
2023/01/17 11:46:47;;;;;;;1.38;0.60;;;;;;;;;;4962116;29;20031;-81
2023/01/17 11:49:26;;;;;;;1.13;0.80;;;;;;;;;;4959505;29;20043;-81
2023/01/17 11:51:55;;;;;;;1.23;1.00;;;;;;;;;;4956185;28;20027;-79
2023/01/17 11:54:38;;;;;;;1.20;1.10;;;;;;;;;;4959551;28;20128;-79
2023/01/17 11:57:05;;;;;;;0.65;0.65;;;;;;;;;;4950990;29;20034;-79
2023/01/17 11:59:36;;;;;;;1.10;1.00;;;;;;;;;;4950520;29;20484;-80
2023/01/17 12:02:21;;;;;;;1.10;1.00;;;;;;;;;;4959874;29;20211;-79
2023/01/17 12:04:59;;;;;;;3.63;0.77;;;;;;;;;;4957446;29;20027;-80
2023/01/17 12:07:33;;;;;;;1.13;1.00;;;;;;;;;;4952538;29;20030;-80
2023/01/17 12:10:04;;;;;;;2.42;0.77;;;;;;;;;;4952356;29;20089;-81
2023/01/17 12:15:32;;;;;;;1.15;0.70;;;;;;;;;;4952393;29;20342;-76
2023/01/17 12:18:14;;;;;;;2.67;1.10;;;;;;;;;;4952103;29;20033;-77
2023/01/17 12:20:40;;;;;;;0.57;0.57;;;;;;;;;;4955516;29;20051;-78
2023/01/17 12:23:15;;;;;;;1.20;1.02;;;;;;;;;;4961542;29;20026;-77
2023/01/17 12:25:41;;;;;;;1.15;1.02;;;;;;;;;;4959711;29;20078;-77
2023/01/17 12:28:20;;;;;;;1.85;1.25;;;;;;;;;;4959974;29;20023;-77
2023/01/17 12:30:54;;;;;;;2.58;0.80;;;;;;;;;;4955054;29;20020;-77
2023/01/17 12:33:28;;;;;;;1.85;0.80;;;;;;;;;;4940409;29;20040;-76
2023/01/17 12:36:00;;;;;;;1.45;1.30;;;;;;;;;;4954043;29;20043;-76
2023/01/17 12:38:32;;;;;;;0.70;0.70;;;;;;;;;;4939818;29;20395;-77
2023/01/17 12:41:01;;;;;;;0.82;0.43;;;;;;;;;;4954957;29;20362;-77
2023/01/17 12:43:32;;;;;;;0.77;0.75;;;;;;;;;;4957337;29;20175;-76
2023/01/17 12:45:58;;;;;;;0.95;0.70;;;;;;;;;;4957872;29;20024;-76
2023/01/17 12:48:28;;;;;;;0.43;0.43;;;;;;;;;;4955063;29;20048;-78
2023/01/17 12:50:54;;;;;;;;;;;;;;;;;;4953213;29;20024;-80
2023/01/17 12:53:39;;;;;;;0.60;0.60;;;;;;;;;;4960308;28;19933;-78
2023/01/17 12:56:08;;;;;;;0.80;0.80;;;;;;;;;;4948789;28;20090;-78
2023/01/17 12:58:54;;;;;;;1.13;0.50;;;;;;;;;;4956197;28;20033;-78
2023/01/17 13:01:28;;;;;;;0.85;0.85;;;;;;;;;;4959270;28;20035;-79
2023/01/17 13:03:54;;;;;;;1.00;0.60;;;;;;;;;;4958422;29;20019;-79
2023/01/17 13:06:31;;;;;;;0.60;0.60;;;;;;;;;;4971130;28;20035;-79
2023/01/17 13:08:59;;;;;;;0.70;0.60;;;;;;;;;;4960192;29;20079;-77
2023/01/17 13:11:29;;;;;;;0.65;0.65;;;;;;;;;;4956693;28;20259;-76
2023/01/17 13:13:58;;;;;;;0.70;0.70;;;;;;;;;;4961549;29;20023;-78
2023/01/17 13:16:24;;;;;;;;;;;;;;;;;;4975150;28;20024;-78
2023/01/17 13:18:51;;;;;;;0.65;0.60;;;;;;;;;;4948885;29;20327;-78
2023/01/17 13:21:27;;;;;;;0.77;0.77;;;;;;;;;;4950534;29;20023;-78
2023/01/17 13:24:00;;;;;;;1.75;1.20;;;;;;;;;;4950425;29;20104;-76
2023/01/17 13:26:35;;;;;;;0.70;0.70;;;;;;;;;;4949018;29;20126;-76
2023/01/17 13:29:04;;;;;;;0.90;0.90;;;;;;;;;;4952230;28;20063;-75
2023/01/17 13:31:38;;;;;;;1.17;0.82;;;;;;;;;;4949128;29;20476;-76
2023/01/17 13:34:18;;;;;;;0.52;0.52;;;;;;;;;;4949719;29;20126;-75
2023/01/17 13:36:53;;;;;;;1.15;0.73;;;;;;;;;;4950229;29;20106;-75
2023/01/17 13:39:28;;;;;;;0.90;0.68;;;;;;;;;;4953441;29;20031;-76
2023/01/17 13:42:02;;;;;;;0.82;0.73;;;;;;;;;;4949635;28;20058;-76
2023/01/17 13:44:30;;;;;;;0.93;0.77;;;;;;;;;;4950819;28;20078;-76
2023/01/17 13:47:20;;;;;;;1.65;0.93;;;;;;;;;;4960600;29;20347;-76
2023/01/17 13:49:47;;;;;;;;;;;;;;;;;;4956513;29;20331;-77
2023/01/17 13:52:19;;;;;;;2.05;1.40;;;;;;;;;;4961278;28;19909;-77
2023/01/17 13:54:46;;;;;;;2.20;0.90;;;;;;;;;;4959838;29;20030;-77
2023/01/17 13:57:40;;;;;;;1.10;1.00;;;;;;;;;;4961526;29;20240;-78
2023/01/17 14:00:20;;;;;;;1.50;1.40;;;;;;;;;;4960639;29;20023;-78
2023/01/17 14:02:47;;;;;;;5.25;1.73;;;;;;;;;;4960392;29;20028;-78
2023/01/17 14:05:20;;;;;;;4.88;2.10;;;;;;;;;;4959309;29;20453;-79
2023/01/17 14:07:53;;;;;;;6.47;3.03;;;;;;;;;;4960536;29;20029;-79
2023/01/17 14:10:23;;;;;;;6.38;3.30;;;;;;;;;;4959927;29;20193;-78
2023/01/17 14:12:49;;;;;;;12.35;6.85;;;;;;;;;;4962528;28;20196;-77
2023/01/17 14:15:21;;;;;;;5.45;3.92;;;;;;;;;;4964481;28;20011;-80
2023/01/17 14:17:55;;;;;;;5.25;2.67;;;;;;;;;;4965920;28;20031;-77
2023/01/17 14:20:28;;;;;;;4.10;2.45;;;;;;;;;;4968995;29;20058;-80
2023/01/17 14:22:56;;;;;;;5.20;2.97;;;;;;;;;;4968857;29;20027;-79
2023/01/17 14:25:23;;;;;;;3.60;2.35;;;;;;;;;;4969628;29;20086;-79
2023/01/17 14:28:22;;;;;;;3.60;2.60;;;;;;;;;;4971362;29;20090;-81
2023/01/17 14:30:53;;;;;;;3.97;2.40;;;;;;;;;;4950151;28;20054;-80
2023/01/17 14:33:22;;;;;;;5.45;2.60;;;;;;;;;;4971303;29;20031;-75
2023/01/17 14:35:56;;;;;;;1.95;1.75;;;;;;;;;;4970129;29;20062;-81
2023/01/17 14:38:26;;;;;;;6.70;3.22;;;;;;;;;;4967780;29;20065;-80
2023/01/17 14:40:58;;;;;;;4.40;2.58;;;;;;;;;;4964595;29;20019;-81
2023/01/17 14:43:24;;;;;;;1.70;1.52;;;;;;;;;;4961507;29;20019;-78
2023/01/17 14:46:00;;;;;;;2.47;1.73;;;;;;;;;;4966119;29;20023;-79
2023/01/17 14:48:27;;;;;;;1.30;1.17;;;;;;;;;;4969511;29;20055;-78
2023/01/17 14:50:56;;;;;;;6.72;2.70;;;;;;;;;;4967260;29;20038;-76
2023/01/17 14:53:44;;;;;;;3.10;1.45;;;;;;;;;;4959897;28;20022;-78
2023/01/17 14:56:15;;;;;;;1.65;1.23;;;;;;;;;;4956296;28;20039;-80
2023/01/17 14:58:41;;;;;;;3.15;2.15;;;;;;;;;;4962986;28;20364;-78
2023/01/17 15:01:12;;;;;;;2.58;2.25;;;;;;;;;;4970072;29;20035;-74
2023/01/17 15:03:44;;;;;;;3.67;2.05;;;;;;;;;;4966568;29;20107;-75
2023/01/17 15:06:12;;;;;;;2.35;2.10;;;;;;;;;;4965639;29;20020;-75
2023/01/17 15:08:38;;;;;;;1.45;1.35;;;;;;;;;;4965599;29;20082;-76
2023/01/17 15:11:09;;;;;;;4.28;3.45;;;;;;;;;;4969666;29;20022;-78
2023/01/17 15:13:40;;;;;;;9.65;4.97;;;;;;;;;;4967004;29;20034;-78
2023/01/17 15:16:08;;;;;;;5.35;3.17;;;;;;;;;;4954544;29;20023;-76
2023/01/17 15:18:38;;;;;;;3.90;1.98;;;;;;;;;;4968975;28;20031;-79
2023/01/17 15:21:05;;;;;;;3.83;1.95;;;;;;;;;;4975964;28;19999;-77
2023/01/17 15:23:33;;;;;;;6.32;2.42;;;;;;;;;;4974992;28;20029;-76
2023/01/17 15:26:00;;;;;;;3.40;1.85;;;;;;;;;;4974131;28;20023;-77
2023/01/17 15:28:26;;;;;;;3.22;2.05;;;;;;;;;;4975318;28;20028;-78
2023/01/17 15:31:07;;;;;;;2.75;2.50;;;;;;;;;;4981194;28;20046;-76
2023/01/17 15:33:34;;;;;;;3.53;2.13;;;;;;;;;;4971277;28;20024;-76
2023/01/17 15:36:02;;;;;;;6.32;2.50;;;;;;;;;;4979852;28;20057;-77
2023/01/17 15:38:29;;;;;;;2.75;2.22;;;;;;;;;;4980261;28;20031;-77
2023/01/17 15:40:55;;;;;;;2.42;2.22;;;;;;;;;;4971616;28;20419;-77
2023/01/17 15:43:34;;;;;;;2.90;2.33;;;;;;;;;;4965259;28;20040;-76
2023/01/17 15:46:00;;;;;;;;;;;;;;;;;;4972186;28;20035;-76
2023/01/17 15:48:26;;;;;;;4.00;2.45;;;;;;;;;;4964225;28;19913;-76
2023/01/17 15:50:58;;;;;;;4.53;2.70;;;;;;;;;;4972924;28;20031;-75
2023/01/17 15:53:29;;;;;;;3.05;2.58;;;;;;;;;;4957608;29;20047;-82
2023/01/17 15:55:55;;;;;;;4.93;2.75;;;;;;;;;;4960317;29;20139;-76
2023/01/17 15:58:26;;;;;;;6.85;3.88;;;;;;;;;;4956524;29;20492;-80
2023/01/17 16:00:52;;;;;;;3.95;3.45;;;;;;;;;;4958055;29;20034;-83
2023/01/17 16:03:26;;;;;;;6.07;3.88;;;;;;;;;;4972405;29;20028;-84
2023/01/17 16:05:55;;;;;;;4.45;4.05;;;;;;;;;;4956520;29;20031;-78
2023/01/17 16:08:24;;;;;;;4.88;3.00;;;;;;;;;;4951428;28;20043;-79
2023/01/17 16:10:53;;;;;;;5.90;3.28;;;;;;;;;;4952478;29;20503;-78
2023/01/17 16:13:20;;;;;;;7.20;4.18;;;;;;;;;;4951981;28;20511;-78
2023/01/17 16:15:46;;;;;;;5.45;3.60;;;;;;;;;;4954187;28;20015;-79
2023/01/17 16:18:15;;;;;;;4.30;3.25;;;;;;;;;;4951020;29;20034;-80
2023/01/17 16:20:49;;;;;;;5.22;3.80;;;;;;;;;;4952133;29;20110;-78
2023/01/17 16:23:16;;;;;;;7.32;3.25;;;;;;;;;;4951806;29;20098;-79